createdAt,value
2022-11-29T00:01:37.829Z,101053.34
2022-11-29T00:04:05.640Z,101063.50
2022-11-29T00:06:34.803Z,101060.31
2022-11-29T00:09:07.770Z,101053.59
2022-11-29T00:11:56.592Z,101053.69
2022-11-29T00:14:26.058Z,101062.34
2022-11-29T00:16:59.314Z,101056.53
2022-11-29T00:19:26.498Z,101059.81
2022-11-29T00:21:53.854Z,101058.97
2022-11-29T00:24:21.235Z,101056.22
2022-11-29T00:26:48.619Z,101056.28
2022-11-29T00:29:16.443Z,101057.16
2022-11-29T00:31:43.980Z,101053.69
2022-11-29T00:34:12.547Z,101052.00
2022-11-29T00:36:40.277Z,101057.00
2022-11-29T00:39:07.823Z,101058.91
2022-11-29T00:41:34.890Z,101045.94
2022-11-29T00:44:01.917Z,101044.50
2022-11-29T00:46:29.355Z,101046.06
2022-11-29T00:48:56.359Z,101046.09
2022-11-29T00:51:23.480Z,101036.88
2022-11-29T00:53:50.549Z,101042.72
2022-11-29T00:56:17.564Z,101040.28
2022-11-29T00:58:44.594Z,101039.28
2022-11-29T01:01:12.183Z,101039.41
2022-11-29T01:03:39.410Z,101044.50
2022-11-29T01:06:12.178Z,101047.78
2022-11-29T01:08:39.764Z,101040.25
2022-11-29T01:11:16.720Z,101046.69
2022-11-29T01:13:44.602Z,101045.34
2022-11-29T01:16:13.268Z,101051.28
2022-11-29T01:18:41.063Z,101052.00
2022-11-29T01:21:26.288Z,101047.63
2022-11-29T01:23:55.418Z,101058.00
2022-11-29T01:26:29.365Z,101055.63
2022-11-29T01:28:58.975Z,101052.31
2022-11-29T01:31:36.257Z,101051.47
2022-11-29T01:34:06.391Z,101053.03
2022-11-29T01:36:34.460Z,101057.53
2022-11-29T01:39:04.836Z,101054.94
2022-11-29T01:41:36.504Z,101060.91
2022-11-29T01:44:12.074Z,101056.63
2022-11-29T01:46:46.108Z,101055.16
2022-11-29T01:49:24.204Z,101053.47
2022-11-29T01:52:00.844Z,101055.06
2022-11-29T01:54:29.946Z,101055.06
2022-11-29T01:56:58.604Z,101052.38
2022-11-29T01:59:29.591Z,101053.63
2022-11-29T02:02:14.615Z,101052.66
2022-11-29T02:04:45.304Z,101055.06
2022-11-29T02:07:12.879Z,101057.59
2022-11-29T02:09:39.906Z,101054.03
2022-11-29T02:12:17.341Z,101054.69
2022-11-29T02:15:08.780Z,101055.94
2022-11-29T02:18:04.456Z,101051.69
2022-11-29T02:21:16.271Z,101053.94
2022-11-29T02:24:52.423Z,101065.28
2022-11-29T02:27:49.903Z,101059.81
2022-11-29T02:30:38.399Z,101063.38
2022-11-29T02:33:28.976Z,101059.16
2022-11-29T02:36:57.777Z,101063.91
2022-11-29T02:39:41.408Z,101061.69
2022-11-29T02:42:56.731Z,101063.47
2022-11-29T02:45:56.235Z,101059.59
2022-11-29T02:49:11.948Z,101066.59
2022-11-29T02:52:04.960Z,101070.09
2022-11-29T02:55:09.422Z,101074.31
2022-11-29T02:57:50.439Z,101075.13
2022-11-29T03:00:22.273Z,101077.88
2022-11-29T03:03:22.469Z,101075.13
2022-11-29T03:06:25.793Z,101077.66
2022-11-29T03:09:19.078Z,101070.44
2022-11-29T03:12:11.981Z,101069.25
2022-11-29T03:15:01.941Z,101070.75
2022-11-29T03:18:12.293Z,101083.63
2022-11-29T03:21:09.691Z,101084.78
2022-11-29T03:23:56.785Z,101078.88
2022-11-29T03:26:53.352Z,101080.38
2022-11-29T03:29:40.793Z,101083.34
2022-11-29T03:32:34.922Z,101085.03
2022-11-29T03:35:14.926Z,101084.13
2022-11-29T03:38:25.224Z,101087.63
2022-11-29T03:41:39.176Z,101099.75
2022-11-29T03:44:25.281Z,101093.53
2022-11-29T03:47:12.557Z,101099.06
2022-11-29T03:49:52.362Z,101096.66
2022-11-29T03:52:33.112Z,101101.03
2022-11-29T03:55:09.266Z,101089.00
2022-11-29T03:58:13.061Z,101094.38
2022-11-29T04:00:48.979Z,101091.44
2022-11-29T04:03:52.710Z,101090.53
2022-11-29T04:06:46.883Z,101092.44
2022-11-29T04:09:28.091Z,101094.13
2022-11-29T04:12:35.702Z,101092.31
2022-11-29T04:16:10.916Z,101097.69
2022-11-29T04:19:36.633Z,101095.00
2022-11-29T04:22:55.616Z,101096.81
2022-11-29T04:25:54.858Z,101101.44
2022-11-29T04:28:55.738Z,101105.59
2022-11-29T04:32:33.234Z,101104.44
2022-11-29T04:36:08.951Z,101108.03
2022-11-29T04:39:33.562Z,101115.91
2022-11-29T04:42:32.671Z,101104.44
2022-11-29T04:45:46.720Z,101108.72
2022-11-29T04:48:54.863Z,101111.47
2022-11-29T04:51:58.605Z,101115.13
2022-11-29T04:54:59.866Z,101113.19
2022-11-29T04:58:06.426Z,101117.72
2022-11-29T05:01:06.890Z,101113.19
2022-11-29T05:03:46.996Z,101122.69
2022-11-29T05:06:44.957Z,101129.47
2022-11-29T05:10:19.750Z,101123.78
2022-11-29T05:13:15.589Z,101126.00
2022-11-29T05:16:32.342Z,101122.28
2022-11-29T05:19:26.954Z,101123.66
2022-11-29T05:22:30.972Z,101132.50
2022-11-29T05:25:19.338Z,101128.13
2022-11-29T05:28:16.564Z,101131.47
2022-11-29T05:31:24.658Z,101138.38
2022-11-29T05:34:34.719Z,101142.63
2022-11-29T05:37:49.195Z,101150.59
2022-11-29T05:41:34.586Z,101157.44
2022-11-29T05:44:32.463Z,101158.34
2022-11-29T05:47:09.981Z,101156.53
2022-11-29T05:50:10.926Z,101158.22
2022-11-29T05:53:04.902Z,101161.91
2022-11-29T05:56:23.327Z,101161.41
2022-11-29T05:59:21.766Z,101165.34
2022-11-29T06:02:39.893Z,101170.78
2022-11-29T06:05:17.603Z,101172.47
2022-11-29T06:08:37.589Z,101172.56
2022-11-29T06:11:41.799Z,101176.94
2022-11-29T06:14:45.582Z,101179.75
2022-11-29T06:17:50.025Z,101180.50
2022-11-29T06:21:04.376Z,101187.50
2022-11-29T06:24:05.143Z,101186.00
2022-11-29T06:27:03.136Z,101190.16
2022-11-29T06:30:09.146Z,101192.59
2022-11-29T06:33:12.701Z,101196.81
2022-11-29T06:36:12.916Z,101199.97
2022-11-29T06:38:40.228Z,101202.88
2022-11-29T06:41:13.770Z,101197.97
2022-11-29T06:43:41.378Z,101206.13
2022-11-29T06:46:46.502Z,101208.16
2022-11-29T06:49:28.771Z,101206.72
2022-11-29T06:52:39.646Z,101213.78
2022-11-29T06:55:33.846Z,101212.00
2022-11-29T06:58:36.164Z,101219.47
2022-11-29T07:01:59.902Z,101221.94
2022-11-29T07:05:25.435Z,101220.78
2022-11-29T07:07:58.304Z,101224.31
2022-11-29T07:10:26.707Z,101230.13
2022-11-29T07:12:54.225Z,101232.00
2022-11-29T07:15:23.318Z,101231.28
2022-11-29T07:18:08.775Z,101233.16
2022-11-29T07:21:04.616Z,101238.84
2022-11-29T07:24:19.103Z,101236.31
2022-11-29T07:27:25.807Z,101238.13
2022-11-29T07:30:01.441Z,101237.81
2022-11-29T07:33:14.277Z,101241.06
2022-11-29T07:36:13.149Z,101244.47
2022-11-29T07:39:24.613Z,101243.16
2022-11-29T07:42:28.074Z,101243.44
2022-11-29T07:45:26.679Z,101251.75
2022-11-29T07:47:53.738Z,101257.72
2022-11-29T07:50:21.843Z,101262.00
2022-11-29T07:52:49.488Z,101268.41
2022-11-29T07:55:23.584Z,101270.94
2022-11-29T07:57:52.137Z,101271.50
2022-11-29T08:00:21.214Z,101272.81
2022-11-29T08:02:50.131Z,101271.03
2022-11-29T08:05:17.835Z,101270.13
2022-11-29T08:07:46.342Z,101268.53
2022-11-29T08:10:16.824Z,101267.34
2022-11-29T08:12:50.159Z,101263.31
2022-11-29T08:15:23.156Z,101269.19
2022-11-29T08:17:50.958Z,101273.91
2022-11-29T08:20:18.108Z,101269.47
2022-11-29T08:22:45.358Z,101273.34
2022-11-29T08:25:12.448Z,101281.03
2022-11-29T08:27:39.634Z,101279.22
2022-11-29T08:30:08.159Z,101282.38
2022-11-29T08:32:35.340Z,101283.38
2022-11-29T08:35:02.421Z,101282.97
2022-11-29T08:37:29.484Z,101281.47
2022-11-29T08:39:58.228Z,101286.41
2022-11-29T08:42:27.601Z,101282.75
2022-11-29T08:44:54.545Z,101277.91
2022-11-29T08:47:36.865Z,101290.94
2022-11-29T08:50:30.606Z,101285.09
2022-11-29T08:53:17.215Z,101299.38
2022-11-29T08:55:46.480Z,101285.25
2022-11-29T08:58:15.783Z,101289.69
2022-11-29T09:00:48.618Z,101287.94
2022-11-29T09:03:34.496Z,101292.16
2022-11-29T09:06:15.683Z,101289.03
2022-11-29T09:08:44.187Z,101303.66
2022-11-29T09:11:17.347Z,101297.22
2022-11-29T09:13:49.186Z,101297.69
2022-11-29T09:16:20.542Z,101302.75
2022-11-29T09:18:52.574Z,101306.41
2022-11-29T09:21:19.713Z,101304.69
2022-11-29T09:23:46.858Z,101303.78
2022-11-29T09:26:20.025Z,101310.31
2022-11-29T09:28:47.319Z,101303.66
2022-11-29T09:31:18.037Z,101309.59
2022-11-29T09:33:45.737Z,101307.66
2022-11-29T09:36:16.107Z,101307.91
2022-11-29T09:38:43.104Z,101307.31
2022-11-29T09:41:54.863Z,101311.53
2022-11-29T09:45:02.168Z,101314.22
2022-11-29T09:48:02.274Z,101314.03
2022-11-29T09:50:37.064Z,101312.50
2022-11-29T09:54:07.462Z,101311.47
2022-11-29T09:56:49.588Z,101309.69
2022-11-29T09:59:51.463Z,101307.59
2022-11-29T10:02:21.858Z,101313.81
2022-11-29T10:05:07.210Z,101312.16
2022-11-29T10:07:48.444Z,101309.97
2022-11-29T10:10:56.208Z,101318.69
2022-11-29T10:13:34.130Z,101319.13
2022-11-29T10:16:45.197Z,101320.59
2022-11-29T10:19:50.917Z,101326.28
2022-11-29T10:22:36.571Z,101322.56
2022-11-29T10:25:07.041Z,101318.41
2022-11-29T10:27:35.657Z,101324.03
2022-11-29T10:30:02.714Z,101320.28
2022-11-29T10:32:34.132Z,101327.47
2022-11-29T10:35:01.558Z,101324.03
2022-11-29T10:37:32.744Z,101323.38
2022-11-29T10:40:10.232Z,101337.50
2022-11-29T10:42:52.348Z,101329.38
2022-11-29T10:45:44.159Z,101336.00
2022-11-29T10:48:21.725Z,101331.13
2022-11-29T10:50:51.715Z,101334.00
2022-11-29T10:53:30.844Z,101334.06
2022-11-29T10:56:24.172Z,101334.94
2022-11-29T10:59:11.915Z,101346.75
2022-11-29T11:01:43.747Z,101342.00
2022-11-29T11:04:45.336Z,101342.41
2022-11-29T11:07:36.283Z,101342.22
2022-11-29T11:10:22.099Z,101337.44
2022-11-29T11:13:30.923Z,101339.34
2022-11-29T11:16:20.097Z,101343.75
2022-11-29T11:18:48.409Z,101338.31
2022-11-29T11:21:21.457Z,101345.84
2022-11-29T11:24:02.881Z,101338.50
2022-11-29T11:26:45.159Z,101339.22
2022-11-29T11:29:41.225Z,101343.44
2022-11-29T11:32:19.896Z,101337.88
2022-11-29T11:35:00.755Z,101342.00
2022-11-29T11:37:33.030Z,101353.09
2022-11-29T11:40:28.969Z,101348.84
2022-11-29T11:43:02.429Z,101354.94
2022-11-29T11:45:36.467Z,101353.44
2022-11-29T11:48:19.057Z,101347.91
2022-11-29T11:50:57.715Z,101344.91
2022-11-29T11:53:36.840Z,101356.69
2022-11-29T11:56:11.851Z,101350.97
2022-11-29T11:58:57.139Z,101350.06
2022-11-29T12:01:36.767Z,101353.09
2022-11-29T12:04:27.345Z,101353.69
2022-11-29T12:07:44.984Z,101352.34
2022-11-29T12:10:26.812Z,101352.63
2022-11-29T12:12:55.929Z,101352.91
2022-11-29T12:15:32.502Z,101353.50
2022-11-29T12:18:25.292Z,101351.69
2022-11-29T12:21:16.612Z,101354.03
2022-11-29T12:24:23.688Z,101368.72
2022-11-29T12:26:59.534Z,101360.91
2022-11-29T12:29:34.843Z,101361.63
2022-11-29T12:33:07.165Z,101368.13
2022-11-29T12:36:19.359Z,101371.56
2022-11-29T12:39:31.676Z,101369.94
2022-11-29T12:42:41.456Z,101372.22
2022-11-29T12:46:12.798Z,101373.31
2022-11-29T12:48:49.503Z,101379.75
2022-11-29T12:51:37.327Z,101385.91
2022-11-29T12:54:47.935Z,101391.88
2022-11-29T12:58:05.706Z,101385.00
2022-11-29T13:01:16.163Z,101387.81
2022-11-29T13:04:22.196Z,101385.69
2022-11-29T13:07:34.574Z,101389.22
2022-11-29T13:10:38.965Z,101394.56
2022-11-29T13:13:37.423Z,101386.44
2022-11-29T13:16:32.203Z,101396.91
2022-11-29T13:19:04.939Z,101392.56
2022-11-29T13:21:40.368Z,101396.06
2022-11-29T13:24:17.874Z,101394.03
2022-11-29T13:26:45.856Z,101389.22
2022-11-29T13:29:22.455Z,101391.81
2022-11-29T13:31:50.042Z,101395.78
2022-11-29T13:34:47.196Z,101393.06
2022-11-29T13:37:56.923Z,101394.09
2022-11-29T13:41:17.051Z,101401.00
2022-11-29T13:44:34.342Z,101407.34
2022-11-29T13:47:15.549Z,101412.66
2022-11-29T13:50:26.965Z,101407.16
2022-11-29T13:53:19.321Z,101406.13
2022-11-29T13:56:02.541Z,101408.94
2022-11-29T13:58:30.489Z,101411.25
2022-11-29T14:01:14.361Z,101416.19
2022-11-29T14:03:48.885Z,101407.88
2022-11-29T14:06:21.843Z,101412.69
2022-11-29T14:09:25.689Z,101415.13
2022-11-29T14:12:27.553Z,101419.44
2022-11-29T14:15:21.718Z,101416.09
2022-11-29T14:18:12.106Z,101413.66
2022-11-29T14:20:54.319Z,101426.25
2022-11-29T14:23:40.442Z,101431.00
2022-11-29T14:26:07.320Z,101434.38
2022-11-29T14:28:41.216Z,101428.53
2022-11-29T14:31:10.325Z,101424.28
2022-11-29T14:34:13.135Z,101431.53
2022-11-29T14:37:04.482Z,101437.50
2022-11-29T14:39:42.054Z,101434.75
2022-11-29T14:42:23.444Z,101434.69
2022-11-29T14:45:00.617Z,101439.13
2022-11-29T14:47:47.692Z,101433.06
2022-11-29T14:50:40.792Z,101450.28
2022-11-29T14:53:32.915Z,101448.38
2022-11-29T14:56:39.061Z,101451.53
2022-11-29T14:59:53.217Z,101453.44
2022-11-29T15:02:42.613Z,101455.28
2022-11-29T15:05:45.067Z,101457.72
2022-11-29T15:08:27.106Z,101453.72
2022-11-29T15:11:34.117Z,101457.94
2022-11-29T15:14:49.590Z,101463.09
2022-11-29T15:17:27.583Z,101468.28
2022-11-29T15:20:30.851Z,101467.78
2022-11-29T15:23:10.867Z,101467.72
2022-11-29T15:26:00.620Z,101457.94
2022-11-29T15:28:30.081Z,101466.72
2022-11-29T15:31:12.136Z,101472.75
2022-11-29T15:33:45.974Z,101470.66
2022-11-29T15:36:21.888Z,101473.81
2022-11-29T15:38:56.830Z,101477.28
2022-11-29T15:41:35.264Z,101475.84
2022-11-29T15:44:06.438Z,101480.06
2022-11-29T15:46:35.674Z,101486.91
2022-11-29T15:49:26.324Z,101485.50
2022-11-29T15:52:31.498Z,101484.84
2022-11-29T15:55:04.712Z,101488.03
2022-11-29T15:57:45.084Z,101488.94
2022-11-29T16:00:23.777Z,101500.53
2022-11-29T16:02:59.322Z,101497.16
2022-11-29T16:05:37.424Z,101495.78
2022-11-29T16:08:16.332Z,101504.06
2022-11-29T16:10:49.302Z,101513.06
2022-11-29T16:13:40.410Z,101503.75
2022-11-29T16:16:22.462Z,101506.00
2022-11-29T16:18:50.791Z,101510.03
2022-11-29T16:21:30.071Z,101510.97
2022-11-29T16:23:58.543Z,101508.34
2022-11-29T16:26:39.047Z,101511.97
2022-11-29T16:29:18.694Z,101511.72
2022-11-29T16:31:45.763Z,101520.94
2022-11-29T16:34:29.749Z,101519.09
2022-11-29T16:37:22.022Z,101518.09
2022-11-29T16:39:55.283Z,101529.28
2022-11-29T16:42:32.668Z,101525.72
2022-11-29T16:45:02.478Z,101532.47
2022-11-29T16:47:46.259Z,101531.59
2022-11-29T16:50:21.854Z,101529.22
2022-11-29T16:52:56.140Z,101533.28
2022-11-29T16:55:24.574Z,101532.44
2022-11-29T16:57:52.182Z,101538.34
2022-11-29T17:00:33.220Z,101529.78
2022-11-29T17:03:00.501Z,101534.03
2022-11-29T17:05:27.772Z,101541.00
2022-11-29T17:07:55.419Z,101539.19
2022-11-29T17:10:25.491Z,101541.09
2022-11-29T17:12:52.791Z,101541.19
2022-11-29T17:15:20.016Z,101541.31
2022-11-29T17:17:47.069Z,101537.84
2022-11-29T17:20:14.536Z,101543.72
2022-11-29T17:22:41.982Z,101540.25
2022-11-29T17:25:10.712Z,101547.91
2022-11-29T17:27:38.317Z,101546.91
2022-11-29T17:30:07.945Z,101543.03
2022-11-29T17:32:38.583Z,101560.34
2022-11-29T17:35:07.699Z,101554.09
2022-11-29T17:37:34.711Z,101560.09
2022-11-29T17:40:01.730Z,101557.09
2022-11-29T17:42:28.786Z,101561.19
2022-11-29T17:44:55.840Z,101560.44
2022-11-29T17:47:22.803Z,101562.97
2022-11-29T17:49:49.854Z,101561.59
2022-11-29T17:52:16.882Z,101556.06
2022-11-29T17:54:44.057Z,101561.19
2022-11-29T17:57:11.293Z,101563.50
2022-11-29T17:59:38.249Z,101570.47
2022-11-29T18:02:05.231Z,101564.53
2022-11-29T18:04:32.205Z,101572.16
2022-11-29T18:06:59.256Z,101577.75
2022-11-29T18:09:26.218Z,101573.44
2022-11-29T18:11:53.235Z,101572.47
2022-11-29T18:14:28.328Z,101575.81
2022-11-29T18:16:55.551Z,101573.31
2022-11-29T18:19:23.549Z,101569.03
2022-11-29T18:21:51.444Z,101578.56
2022-11-29T18:24:19.009Z,101576.75
2022-11-29T18:26:46.431Z,101575.72
2022-11-29T18:29:13.573Z,101582.94
2022-11-29T18:31:44.508Z,101584.53
2022-11-29T18:34:14.119Z,101584.53
2022-11-29T18:36:45.601Z,101580.28
2022-11-29T18:39:16.615Z,101584.63
2022-11-29T18:41:48.679Z,101589.03
2022-11-29T18:44:20.081Z,101594.88
2022-11-29T18:46:47.951Z,101593.31
2022-11-29T18:49:17.907Z,101596.84
2022-11-29T18:51:46.636Z,101590.97
2022-11-29T18:54:16.838Z,101600.25
2022-11-29T18:56:45.361Z,101598.47
2022-11-29T18:59:17.867Z,101597.75
2022-11-29T19:01:47.887Z,101597.72
2022-11-29T19:04:20.596Z,101593.28
2022-11-29T19:06:48.181Z,101594.50
2022-11-29T19:09:21.864Z,101593.66
2022-11-29T19:11:49.776Z,101590.00
2022-11-29T19:14:17.064Z,101589.78
2022-11-29T19:16:47.508Z,101593.50
2022-11-29T19:19:14.600Z,101594.34
2022-11-29T19:21:42.110Z,101590.91
2022-11-29T19:24:14.861Z,101595.13
2022-11-29T19:26:45.843Z,101598.56
2022-11-29T19:29:17.299Z,101602.16
2022-11-29T19:31:44.497Z,101605.63
2022-11-29T19:34:11.670Z,101602.03
2022-11-29T19:36:43.871Z,101606.53
2022-11-29T19:39:14.240Z,101612.59
2022-11-29T19:41:45.335Z,101613.59
2022-11-29T19:44:12.981Z,101597.94
2022-11-29T19:46:45.595Z,101606.00
2022-11-29T19:49:13.217Z,101606.63
2022-11-29T19:51:40.630Z,101611.09
2022-11-29T19:54:10.682Z,101613.75
2022-11-29T19:56:38.708Z,101611.09
2022-11-29T19:59:08.182Z,101607.22
2022-11-29T20:01:43.685Z,101616.34
2022-11-29T20:04:13.635Z,101619.06
2022-11-29T20:06:41.388Z,101626.53
2022-11-29T20:09:08.507Z,101613.34
2022-11-29T20:11:35.721Z,101629.28
2022-11-29T20:14:05.552Z,101630.19
2022-11-29T20:16:33.464Z,101624.97
2022-11-29T20:19:01.631Z,101629.16
2022-11-29T20:21:33.653Z,101630.13
2022-11-29T20:24:07.552Z,101630.13
2022-11-29T20:26:39.398Z,101626.88
2022-11-29T20:29:08.456Z,101627.47
2022-11-29T20:31:38.740Z,101637.19
2022-11-29T20:34:06.736Z,101635.59
2022-11-29T20:37:07.356Z,101630.31
2022-11-29T20:40:08.317Z,101633.88
2022-11-29T20:43:23.927Z,101636.28
2022-11-29T20:45:51.203Z,101642.34
2022-11-29T20:48:22.309Z,101632.91
2022-11-29T20:50:59.495Z,101636.78
2022-11-29T20:53:46.032Z,101645.13
2022-11-29T20:56:13.082Z,101645.09
2022-11-29T20:58:40.617Z,101646.69
2022-11-29T21:01:08.000Z,101651.09
2022-11-29T21:03:35.638Z,101654.50
2022-11-29T21:06:05.795Z,101644.22
2022-11-29T21:08:33.646Z,101652.13
2022-11-29T21:11:10.317Z,101653.84
2022-11-29T21:13:38.280Z,101656.28
2022-11-29T21:16:06.187Z,101656.97
2022-11-29T21:18:34.624Z,101659.72
2022-11-29T21:21:53.376Z,101654.31
2022-11-29T21:25:14.398Z,101656.28
2022-11-29T21:27:41.963Z,101660.72
2022-11-29T21:30:24.900Z,101664.94
2022-11-29T21:32:53.073Z,101655.47
2022-11-29T21:35:20.061Z,101666.66
2022-11-29T21:37:47.153Z,101658.19
2022-11-29T21:40:15.083Z,101668.31
2022-11-29T21:42:42.225Z,101667.34
2022-11-29T21:45:15.347Z,101671.88
2022-11-29T21:47:44.468Z,101671.00
2022-11-29T21:50:14.007Z,101666.63
2022-11-29T21:52:41.096Z,101672.09
2022-11-29T21:55:08.881Z,101664.94
2022-11-29T21:57:36.102Z,101664.19
2022-11-29T22:00:04.788Z,101672.19
2022-11-29T22:02:31.899Z,101677.19
2022-11-29T22:04:58.998Z,101680.66
2022-11-29T22:07:26.005Z,101679.72
2022-11-29T22:09:52.940Z,101683.25
2022-11-29T22:12:33.916Z,101677.25
2022-11-29T22:15:01.809Z,101682.22
2022-11-29T22:17:28.798Z,101678.06
2022-11-29T22:19:55.791Z,101678.88
2022-11-29T22:22:27.068Z,101678.97
2022-11-29T22:24:55.024Z,101683.28
2022-11-29T22:27:22.008Z,101685.09
2022-11-29T22:29:49.081Z,101684.22
2022-11-29T22:32:16.108Z,101678.97
2022-11-29T22:34:43.167Z,101681.50
2022-11-29T22:37:10.233Z,101679.03
2022-11-29T22:39:37.184Z,101681.72
2022-11-29T22:42:04.297Z,101681.59
2022-11-29T22:44:31.338Z,101682.44
2022-11-29T22:46:58.364Z,101690.06
2022-11-29T22:49:25.509Z,101684.78
2022-11-29T22:51:52.559Z,101689.09
2022-11-29T22:54:20.205Z,101685.63
2022-11-29T22:56:47.573Z,101689.09
2022-11-29T22:59:14.648Z,101689.16
2022-11-29T23:01:42.791Z,101689.22
2022-11-29T23:04:12.186Z,101691.03
2022-11-29T23:06:43.663Z,101690.16
2022-11-29T23:09:20.969Z,101694.47
2022-11-29T23:11:53.875Z,101694.47
2022-11-29T23:14:22.127Z,101698.66
2022-11-29T23:16:49.439Z,101694.59
2022-11-29T23:19:17.186Z,101692.69
2022-11-29T23:21:45.754Z,101703.00
2022-11-29T23:24:15.165Z,101703.13
2022-11-29T23:26:46.856Z,101707.41
2022-11-29T23:29:18.150Z,101700.53
2022-11-29T23:31:46.586Z,101701.47
2022-11-29T23:34:14.221Z,101698.84
2022-11-29T23:36:41.478Z,101695.38
2022-11-29T23:39:08.806Z,101698.25
2022-11-29T23:41:37.142Z,101697.16
2022-11-29T23:44:06.362Z,101698.75
2022-11-29T23:46:34.939Z,101690.38
2022-11-29T23:49:02.201Z,101691.16
2022-11-29T23:51:29.350Z,101694.66
2022-11-29T23:53:56.504Z,101692.94
2022-11-29T23:56:23.562Z,101687.59
2022-11-29T23:58:50.671Z,101687.91
